Time;durP1;ratioP1;P1;durP2;ratioP2;P2;SDS_P1;SDS_P2;PMS_P1;PMS_P2;Temp;Humidity;BMP_temperature;BMP_pressure;BME280_temperature;BME280_humidity;BME280_pressure;Samples;Min_cycle;Max_cycle;Signal;HPM_P1;HPM_P2
2022/01/27 00:01:06;;;;;;;67.30;36.03;;;;;;;5.67;86.71;101718.22;5099476;28;20414;-78
2022/01/27 00:03:38;;;;;;;69.83;34.77;;;;;;;6.04;84.24;101714.75;5099237;28;20511;-77
2022/01/27 00:06:06;;;;;;;63.00;33.60;;;;;;;5.67;86.76;101706.19;5099397;28;20397;-77
2022/01/27 00:08:41;;;;;;;58.77;34.37;;;;;;;5.66;87.05;101714.75;5082116;28;20680;-74
2022/01/27 00:11:14;;;;;;;66.90;34.47;;;;;;;5.73;86.59;101711.63;5099313;28;20414;-76
2022/01/27 00:13:46;;;;;;;71.93;34.10;;;;;;;5.55;87.75;101698.75;5099106;28;20402;-75
2022/01/27 00:16:24;;;;;;;66.63;35.80;;;;;;;5.72;87.01;101694.34;5099022;28;20485;-77
2022/01/27 00:18:52;;;;;;;66.63;34.47;;;;;;;5.40;87.32;101688.59;5099359;28;20392;-80
2022/01/27 00:21:24;;;;;;;70.13;35.17;;;;;;;5.80;87.03;101683.44;5099057;28;20443;-80
2022/01/27 00:23:49;;;;;;;69.27;36.43;;;;;;;5.72;86.66;101680.50;5098971;28;20461;-77
2022/01/27 00:26:16;;;;;;;64.07;33.90;;;;;;;5.30;88.53;101665.69;5062939;28;20414;-76
2022/01/27 00:28:42;;;;;;;68.27;35.17;;;;;;;5.47;88.67;101647.50;5078783;28;20176;-76
2022/01/27 00:31:08;;;;;;;70.20;39.00;;;;;;;5.61;87.85;101632.59;5078729;28;20425;-85
2022/01/27 00:33:34;;;;;;;71.70;37.43;;;;;;;5.64;87.61;101628.44;5060644;28;20424;-72
2022/01/27 00:35:59;;;;;;;64.73;37.70;;;;;;;5.56;87.72;101614.25;5078379;28;20458;-71
2022/01/27 00:38:25;;;;;;;66.63;36.43;;;;;;;5.66;87.37;101606.09;5078415;28;20269;-73
2022/01/27 00:40:50;;;;;;;68.50;36.00;;;;;;;5.98;86.24;101585.94;5078642;28;20248;-73
2022/01/27 00:43:17;;;;;;;67.47;34.70;;;;;;;5.50;88.23;101601.97;5060727;28;20215;-72
2022/01/27 00:45:42;;;;;;;72.00;36.80;;;;;;;5.79;86.79;101598.88;5078503;28;20181;-75
2022/01/27 00:48:07;;;;;;;63.27;35.10;;;;;;;5.55;87.62;101599.59;5078830;28;20445;-75
2022/01/27 00:50:36;;;;;;;63.33;34.13;;;;;;;5.69;86.44;101590.72;5060866;28;20175;-73
2022/01/27 00:53:05;;;;;;;67.00;34.73;;;;;;;5.45;87.53;101592.22;5068030;28;20221;-76
2022/01/27 00:55:36;;;;;;;69.77;38.73;;;;;;;5.85;87.10;101583.63;5078461;28;20434;-75
2022/01/27 00:58:32;;;;;;;65.37;38.93;;;;;;;5.73;87.02;101581.38;5078669;28;20839;-75
2022/01/27 01:01:02;;;;;;;72.07;37.70;;;;;;;5.61;86.72;101576.56;5078413;28;20425;-75
2022/01/27 01:03:38;;;;;;;73.73;37.23;;;;;;;5.69;86.17;101575.19;5078313;28;20423;-80
2022/01/27 01:06:20;;;;;;;73.40;39.40;;;;;;;5.71;86.88;101576.16;5078086;28;20411;-74
2022/01/27 01:14:21;;;;;;;72.83;37.67;;;;;;;5.84;87.39;101567.19;5086175;28;20165;-75
2022/01/27 01:19:20;;;;;;;68.70;38.43;;;;;;;5.50;88.11;101559.69;5080159;28;20415;-75
2022/01/27 01:22:13;;;;;;;71.90;37.70;;;;;;;5.42;87.25;101551.59;5077952;28;20511;-73
2022/01/27 01:30:33;;;;;;;66.93;41.00;;;;;;;5.32;87.46;101532.22;5098239;28;20421;-76
2022/01/27 01:32:59;;;;;;;70.00;38.80;;;;;;;5.50;87.24;101536.44;5098246;28;20410;-77
2022/01/27 01:35:35;;;;;;;69.57;38.93;;;;;;;5.11;88.07;101526.09;5097372;28;20806;-77
2022/01/27 01:38:01;;;;;;;64.10;38.70;;;;;;;5.33;87.49;101522.75;5097162;28;20433;-76
2022/01/27 01:40:26;;;;;;;71.60;40.07;;;;;;;5.60;86.67;101517.00;5098048;28;20444;-75
2022/01/27 01:42:52;;;;;;;74.60;40.17;;;;;;;5.68;85.35;101508.75;5097909;28;20176;-77
2022/01/27 01:45:19;;;;;;;61.87;37.33;;;;;;;5.52;85.42;101504.66;5100399;28;20243;-76
2022/01/27 01:47:45;;;;;;;72.83;40.40;;;;;;;5.46;85.87;101501.78;5101111;28;20438;-74
2022/01/27 01:50:11;;;;;;;62.63;39.47;;;;;;;5.33;85.96;101500.38;5101828;28;20426;-75
2022/01/27 01:52:38;;;;;;;61.03;37.13;;;;;;;5.49;86.27;101499.31;5101995;28;20453;-75
2022/01/27 01:55:05;;;;;;;62.67;38.90;;;;;;;5.43;85.92;101501.66;5101996;28;20266;-75
2022/01/27 01:57:30;;;;;;;64.23;38.67;;;;;;;5.30;85.96;101499.34;5101881;28;20385;-74
2022/01/27 01:59:55;;;;;;;60.73;37.47;;;;;;;5.60;85.09;101504.94;5101807;28;20742;-74
2022/01/27 02:02:20;;;;;;;64.70;38.30;;;;;;;5.88;83.72;101501.81;5101709;28;20180;-74
2022/01/27 02:04:46;;;;;;;60.27;35.87;;;;;;;5.42;85.23;101496.44;5101950;28;20192;-75
2022/01/27 02:07:29;;;;;;;60.57;37.20;;;;;;;5.75;84.27;101486.63;5102367;28;20185;-76
2022/01/27 02:18:07;;;;;;;56.37;32.80;;;;;;;5.64;82.18;101490.44;5101477;28;20437;-74
2022/01/27 02:20:34;;;;;;;51.37;32.30;;;;;;;5.78;83.46;101497.09;5084328;28;20430;-77
2022/01/27 02:23:00;;;;;;;45.93;30.83;;;;;;;5.99;82.70;101499.69;5063545;28;20430;-81
2022/01/27 02:25:25;;;;;;;41.07;25.87;;;;;;;5.60;83.64;101478.19;5081205;28;20454;-78
2022/01/27 02:27:54;;;;;;;44.63;30.80;;;;;;;5.86;82.55;101459.47;5081673;28;20386;-78
2022/01/27 02:30:20;;;;;;;43.83;29.80;;;;;;;5.85;81.57;101472.34;5081403;28;20176;-79
2022/01/27 02:32:45;;;;;;;43.33;29.13;;;;;;;6.20;80.70;101449.63;5081253;28;20813;-79
2022/01/27 02:35:11;;;;;;;44.77;28.50;;;;;;;6.12;80.98;101445.84;5064661;28;20179;-77
2022/01/27 02:37:37;;;;;;;44.77;27.17;;;;;;;5.98;81.00;101446.19;5064044;28;20168;-79
2022/01/27 02:40:04;;;;;;;40.13;27.40;;;;;;;6.00;80.71;101435.88;5081019;28;20260;-79
2022/01/27 02:42:32;;;;;;;45.50;28.17;;;;;;;6.17;80.04;101439.13;5063761;28;20246;-77
2022/01/27 02:45:04;;;;;;;45.23;29.47;;;;;;;6.27;79.81;101419.66;5080532;28;20747;-79
2022/01/27 02:47:32;;;;;;;40.67;28.13;;;;;;;5.93;80.24;101403.66;5080708;28;20418;-79
2022/01/27 02:49:58;;;;;;;43.30;28.50;;;;;;;6.05;80.34;101419.72;5080635;28;20723;-80
2022/01/27 02:52:23;;;;;;;40.83;26.80;;;;;;;6.19;79.79;101415.06;5080462;28;20466;-82
2022/01/27 02:54:48;;;;;;;39.80;26.77;;;;;;;6.04;79.92;101424.81;5080977;28;20218;-79
2022/01/27 02:57:15;;;;;;;38.63;26.07;;;;;;;6.20;79.90;101428.91;5062413;28;20197;-78
2022/01/27 02:59:40;;;;;;;40.87;27.53;;;;;;;6.30;79.26;101431.00;5063444;28;20412;-79
2022/01/27 03:02:06;;;;;;;43.67;26.80;;;;;;;6.41;78.78;101421.03;5081207;28;20445;-79
2022/01/27 03:04:33;;;;;;;37.87;27.47;;;;;;;5.96;80.22;101415.84;5080297;28;20207;-79
2022/01/27 03:06:59;;;;;;;40.60;26.83;;;;;;;6.44;78.97;101407.34;5080559;28;20227;-80
2022/01/27 03:09:25;;;;;;;42.37;28.67;;;;;;;6.13;79.25;101409.66;5081186;28;20744;-79
2022/01/27 03:11:55;;;;;;;38.87;27.87;;;;;;;5.82;79.99;101410.09;5080535;28;20472;-79
2022/01/27 03:14:22;;;;;;;43.33;26.40;;;;;;;6.44;77.83;101400.47;5062849;28;20550;-80
2022/01/27 03:16:49;;;;;;;38.20;26.93;;;;;;;6.21;79.03;101394.41;5063722;28;20414;-78
2022/01/27 03:19:15;;;;;;;37.30;25.67;;;;;;;6.04;78.93;101401.53;5062900;28;20483;-79
2022/01/27 03:21:40;;;;;;;43.27;27.50;;;;;;;6.23;78.50;101385.00;5080001;28;20737;-79
2022/01/27 03:24:06;;;;;;;47.90;28.07;;;;;;;6.55;78.10;101378.41;5062950;28;20196;-79
2022/01/27 03:26:32;;;;;;;35.47;24.23;;;;;;;5.96;78.94;101380.47;5081161;28;20180;-81
2022/01/27 03:29:00;;;;;;;36.30;25.10;;;;;;;6.14;78.53;101351.84;5063000;28;20764;-81
2022/01/27 03:31:26;;;;;;;39.23;26.20;;;;;;;6.49;78.60;101348.81;5080825;28;20176;-81
2022/01/27 03:33:52;;;;;;;38.60;25.90;;;;;;;6.29;nan;101348.97;5079582;28;20728;-77
2022/01/27 03:36:18;;;;;;;41.17;25.40;;;;;;;6.31;77.64;101349.03;5079821;28;20455;-78
2022/01/27 03:38:43;;;;;;;45.10;26.00;;;;;;;6.13;78.31;101352.69;5079985;28;20439;-77
2022/01/27 03:41:10;;;;;;;39.37;27.33;;;;;;;6.31;79.27;101347.31;5079598;28;20204;-77
2022/01/27 03:43:37;;;;;;;39.70;26.73;;;;;;;6.36;77.78;101352.66;5079225;28;20242;-78
2022/01/27 03:46:03;;;;;;;42.70;26.67;;;;;;;6.12;78.49;101344.88;5080113;28;20488;-81
2022/01/27 03:48:29;;;;;;;41.33;27.43;;;;;;;6.08;78.72;101351.66;5079521;28;20484;-78
2022/01/27 03:50:54;;;;;;;38.40;27.17;;;;;;;6.25;79.27;101339.31;5079716;28;20192;-78
2022/01/27 03:53:20;;;;;;;45.97;28.47;;;;;;;5.99;78.56;101339.22;5075861;28;20228;-78
2022/01/27 03:55:45;;;;;;;50.60;28.07;;;;;;;6.07;79.13;101322.31;5099682;28;20542;-77
2022/01/27 03:58:11;;;;;;;39.80;27.80;;;;;;;6.22;79.25;101318.50;5100001;28;20186;-76
2022/01/27 04:00:37;;;;;;;41.27;26.43;;;;;;;5.98;80.01;101311.59;5099644;28;20176;-77
2022/01/27 04:03:06;;;;;;;41.53;28.93;;;;;;;6.00;80.41;101309.94;5099570;28;20283;-78
2022/01/27 04:05:42;;;;;;;39.00;25.80;;;;;;;5.68;81.93;101294.06;5100495;28;20233;-79
2022/01/27 04:08:11;;;;;;;40.23;24.27;;;;;;;5.48;83.08;101306.19;5084030;28;20406;-77
2022/01/27 04:10:37;;;;;;;44.80;28.47;;;;;;;5.96;82.19;101305.44;5105345;28;20792;-77
2022/01/27 04:13:07;;;;;;;40.63;27.17;;;;;;;5.74;83.40;101299.44;5092186;28;20514;-81
2022/01/27 04:15:33;;;;;;;46.07;27.30;;;;;;;5.83;82.44;101305.78;5103687;28;20176;-81
2022/01/27 04:17:58;;;;;;;46.10;31.47;;;;;;;5.89;82.54;101303.44;5069683;28;20421;-82
2022/01/27 04:20:24;;;;;;;50.23;31.10;;;;;;;5.67;84.08;101301.72;5083466;28;20385;-81
2022/01/27 04:22:49;;;;;;;43.80;30.23;;;;;;;6.07;82.50;101291.25;5099680;28;20192;-79
2022/01/27 04:25:15;;;;;;;38.57;28.97;;;;;;;5.73;83.83;101289.91;5068259;28;20192;-85
2022/01/27 04:27:45;;;;;;;46.50;29.17;;;;;;;6.07;83.17;101288.66;5086370;28;20179;-83
2022/01/27 04:30:16;;;;;;;50.43;30.63;;;;;;;5.61;83.58;101296.34;5066902;28;20400;-83
2022/01/27 04:32:49;;;;;;;44.03;30.90;;;;;;;5.93;82.98;101300.16;5100516;28;20389;-85
2022/01/27 04:35:19;;;;;;;43.70;29.57;;;;;;;5.91;83.92;101304.38;5099999;28;20644;-84
2022/01/27 04:37:58;;;;;;;42.83;28.57;;;;;;;5.77;84.31;101295.22;5101227;28;20450;-83
2022/01/27 04:40:34;;;;;;;42.30;29.03;;;;;;;5.40;85.39;101300.72;5100909;28;20429;-83
2022/01/27 04:45:31;;;;;;;51.10;29.57;;;;;;;5.69;85.50;101276.81;5082762;28;20547;-80
2022/01/27 04:48:06;;;;;;;46.43;30.23;;;;;;;5.76;83.57;101277.94;5100620;28;20199;-77
2022/01/27 04:50:31;;;;;;;50.87;30.13;;;;;;;5.74;84.00;101265.81;5105948;28;20463;-79
2022/01/27 04:52:59;;;;;;;44.87;30.77;;;;;;;5.81;83.84;101266.94;5094901;28;20481;-81
2022/01/27 04:55:25;;;;;;;45.67;30.23;;;;;;;5.99;83.37;101260.69;5046009;28;20177;-80
2022/01/27 04:58:06;;;;;;;37.63;23.80;;;;;;;5.12;86.48;101264.25;5062111;28;20407;-82
2022/01/27 05:01:04;;;;;;;46.57;29.50;;;;;;;5.59;84.91;101252.31;5045970;28;20816;-82
2022/01/27 05:03:37;;;;;;;46.60;30.30;;;;;;;5.83;83.93;101254.94;5060992;28;20422;-80
2022/01/27 05:06:03;;;;;;;42.67;28.13;;;;;;;5.62;85.29;101244.66;5062055;28;20404;-80
2022/01/27 05:08:28;;;;;;;46.87;30.87;;;;;;;5.69;84.99;101238.88;5060801;28;20415;-78
2022/01/27 05:10:58;;;;;;;48.93;30.50;;;;;;;5.48;85.53;101251.00;5078565;28;20438;-80
2022/01/27 05:13:26;;;;;;;40.30;28.27;;;;;;;5.69;85.22;101233.72;5078215;28;20546;-78
2022/01/27 05:15:52;;;;;;;45.27;31.00;;;;;;;5.50;85.44;101232.13;5060637;28;20386;-78
2022/01/27 05:18:19;;;;;;;47.50;30.70;;;;;;;5.89;85.56;101224.09;5078836;28;20478;-79
2022/01/27 05:20:45;;;;;;;40.53;28.80;;;;;;;5.80;84.87;101217.72;5060374;28;20583;-79
2022/01/27 05:23:10;;;;;;;44.20;28.67;;;;;;;5.92;85.45;101212.97;5060691;28;20419;-81
2022/01/27 05:25:42;;;;;;;43.07;30.27;;;;;;;5.56;85.13;101213.38;5060899;28;20242;-80
2022/01/27 05:28:07;;;;;;;39.47;27.90;;;;;;;5.61;85.33;101219.59;5060774;28;20451;-84
2022/01/27 05:30:34;;;;;;;46.23;28.03;;;;;;;5.61;85.21;101214.44;5078692;28;20415;-82
2022/01/27 05:32:59;;;;;;;43.60;30.10;;;;;;;5.66;85.27;101214.63;5078471;28;20376;-81
2022/01/27 05:35:25;;;;;;;44.13;28.30;;;;;;;5.49;84.63;101203.63;5078303;28;20418;-82
2022/01/27 05:37:50;;;;;;;40.90;27.13;;;;;;;5.73;85.46;101204.53;5060782;28;20179;-82
2022/01/27 05:40:15;;;;;;;44.00;27.13;;;;;;;5.65;85.12;101207.69;5061322;28;20225;-80
2022/01/27 05:42:41;;;;;;;40.43;26.77;;;;;;;5.38;85.81;101209.25;5078145;28;20173;-82
2022/01/27 05:45:07;;;;;;;44.77;29.10;;;;;;;5.40;86.21;101196.44;5043717;28;20201;-83
2022/01/27 05:47:32;;;;;;;41.03;27.60;;;;;;;5.39;86.38;101189.47;5078351;28;20184;-82
2022/01/27 05:49:57;;;;;;;32.83;23.10;;;;;;;5.42;86.84;101205.09;5077936;28;20165;-81
2022/01/27 05:52:23;;;;;;;38.33;28.17;;;;;;;5.26;86.49;101180.34;5077890;28;20224;-79
2022/01/27 05:54:48;;;;;;;37.30;24.90;;;;;;;5.68;85.87;101187.09;5078337;28;20506;-80
2022/01/27 05:57:14;;;;;;;34.07;24.27;;;;;;;5.33;86.01;101179.78;5060243;28;20443;-80
2022/01/27 05:59:39;;;;;;;38.93;26.50;;;;;;;5.65;85.99;101187.84;5060447;28;20177;-79
2022/01/27 06:02:05;;;;;;;35.30;21.77;;;;;;;5.48;86.10;101188.94;5061129;28;20468;-79
2022/01/27 06:04:30;;;;;;;35.60;24.97;;;;;;;5.47;85.90;101184.59;5077884;28;20312;-78
2022/01/27 06:06:55;;;;;;;36.53;24.60;;;;;;;5.48;86.58;101181.19;5077825;28;20504;-80
2022/01/27 06:09:21;;;;;;;34.67;22.40;;;;;;;5.50;86.32;101164.03;5078037;28;20610;-80
2022/01/27 06:11:46;;;;;;;36.27;24.77;;;;;;;5.71;85.70;101161.31;5077726;28;20181;-79
2022/01/27 06:14:11;;;;;;;36.47;23.80;;;;;;;5.66;86.05;101168.94;5077559;28;20202;-80
2022/01/27 06:16:37;;;;;;;30.13;22.33;;;;;;;5.78;85.52;101150.41;5078763;28;20177;-79
2022/01/27 06:19:04;;;;;;;31.70;22.47;;;;;;;6.09;84.19;101151.50;5060355;28;20180;-79
2022/01/27 06:21:32;;;;;;;30.53;21.23;;;;;;;5.73;84.67;101152.81;5077588;28;20242;-80
2022/01/27 06:24:00;;;;;;;34.17;23.50;;;;;;;5.71;85.00;101143.22;5060320;28;20892;-80
2022/01/27 06:26:28;;;;;;;31.40;22.73;;;;;;;5.76;85.45;101133.91;5043371;28;20872;-81
2022/01/27 06:28:53;;;;;;;32.83;23.03;;;;;;;5.85;85.47;101121.31;5077621;28;20671;-81
2022/01/27 06:31:18;;;;;;;30.77;21.60;;;;;;;5.64;86.03;101121.47;5061204;28;20378;-80
2022/01/27 06:33:44;;;;;;;29.97;20.43;;;;;;;5.40;86.11;101129.19;5047339;28;20198;-81
2022/01/27 06:36:09;;;;;;;28.67;21.67;;;;;;;5.60;86.71;101123.84;5047500;28;20196;-82
2022/01/27 06:38:34;;;;;;;27.13;20.93;;;;;;;5.54;86.61;101132.28;5064372;28;20169;-82
2022/01/27 06:41:00;;;;;;;30.20;21.87;;;;;;;5.67;86.51;101121.56;5064154;28;20197;-80
2022/01/27 06:43:25;;;;;;;31.27;21.50;;;;;;;5.62;86.42;101125.69;5082112;28;20169;-80
2022/01/27 06:45:50;;;;;;;36.17;26.23;;;;;;;5.85;86.01;101123.91;5047412;28;20199;-82
2022/01/27 06:48:15;;;;;;;33.53;24.50;;;;;;;5.82;86.29;101118.63;5080890;28;20173;-79
2022/01/27 06:50:41;;;;;;;36.90;25.43;;;;;;;6.19;85.24;101114.72;5063382;28;20227;-79
2022/01/27 06:53:06;;;;;;;31.80;22.40;;;;;;;5.91;86.14;101112.88;5074701;28;20570;-77
2022/01/27 06:55:32;;;;;;;30.27;22.83;;;;;;;5.47;86.88;101120.84;5084736;28;20233;-81
2022/01/27 06:57:57;;;;;;;33.67;23.07;;;;;;;5.90;86.19;101124.09;5101325;28;20257;-81
2022/01/27 07:00:22;;;;;;;33.07;22.87;;;;;;;5.76;86.70;101104.59;5101231;28;20526;-80
2022/01/27 07:02:48;;;;;;;29.80;21.83;;;;;;;5.60;87.38;101108.34;5083312;28;20164;-80
2022/01/27 07:05:15;;;;;;;34.07;23.60;;;;;;;5.87;86.39;101105.84;5083608;28;20192;-81
2022/01/27 07:07:42;;;;;;;33.53;21.90;;;;;;;5.62;87.38;101110.16;5087968;28;20170;-81
2022/01/27 07:10:07;;;;;;;30.60;22.70;;;;;;;5.65;87.32;101101.63;5112932;28;20406;-80
2022/01/27 07:12:32;;;;;;;32.47;24.27;;;;;;;5.65;87.79;101109.38;5108002;28;20480;-80
2022/01/27 07:15:03;;;;;;;34.50;22.83;;;;;;;5.67;87.31;101118.06;5101442;28;20172;-81
2022/01/27 07:17:52;;;;;;;27.77;20.60;;;;;;;5.50;87.82;101110.59;5067163;28;20169;-82
2022/01/27 07:20:20;;;;;;;32.10;22.10;;;;;;;5.47;87.53;101112.22;5082968;28;20678;-82
2022/01/27 07:22:49;;;;;;;28.93;21.40;;;;;;;5.92;86.84;101103.44;5065869;28;20484;-81
2022/01/27 07:25:28;;;;;;;29.00;21.20;;;;;;;5.85;86.93;101097.16;5066631;28;20417;-83
2022/01/27 07:27:53;;;;;;;29.30;21.40;;;;;;;5.72;86.88;101098.41;5082524;28;20495;-82
2022/01/27 07:30:19;;;;;;;27.33;19.47;;;;;;;5.49;87.85;101108.81;5065981;28;20434;-79
2022/01/27 07:32:44;;;;;;;27.90;19.70;;;;;;;5.81;87.66;101084.94;5099889;28;20211;-80
2022/01/27 07:35:09;;;;;;;25.60;18.10;;;;;;;5.55;88.49;101092.66;5100213;28;20169;-80
2022/01/27 07:37:35;;;;;;;28.73;20.03;;;;;;;5.38;88.55;101092.91;5100101;28;20206;-79
2022/01/27 07:40:00;;;;;;;27.00;18.53;;;;;;;5.53;88.61;101087.44;5099765;28;20195;-81
2022/01/27 07:42:25;;;;;;;26.33;19.00;;;;;;;5.91;88.16;101084.41;5081890;28;20247;-82
2022/01/27 07:44:51;;;;;;;28.00;19.07;;;;;;;5.93;87.58;101095.72;5082849;28;20204;-81
2022/01/27 07:47:16;;;;;;;29.30;18.70;;;;;;;5.42;88.94;101069.78;5083632;28;20658;-81
2022/01/27 07:49:41;;;;;;;29.80;21.97;;;;;;;5.56;88.01;101091.81;5082383;28;20164;-83
2022/01/27 07:52:06;;;;;;;25.57;18.50;;;;;;;5.49;89.00;101082.97;5096716;28;20246;-83
2022/01/27 07:54:32;;;;;;;29.53;17.40;;;;;;;5.38;88.90;101092.06;5062111;28;20225;-83
2022/01/27 07:57:00;;;;;;;28.23;20.50;;;;;;;5.64;88.13;101081.75;5079805;28;20168;-83
2022/01/27 08:00:12;;;;;;;25.97;18.97;;;;;;;5.97;87.91;101082.06;5044719;28;20175;-83
2022/01/27 08:02:37;;;;;;;29.70;18.90;;;;;;;5.68;87.65;101074.19;5069778;28;20727;-79
2022/01/27 08:05:03;;;;;;;27.37;19.23;;;;;;;5.73;88.63;101072.59;5079071;28;20459;-80
2022/01/27 08:07:28;;;;;;;28.60;20.70;;;;;;;5.78;98.64;101058.94;5079086;28;20437;-75
2022/01/27 08:09:54;;;;;;;28.90;19.03;;;;;;;5.62;98.35;101060.16;5087680;28;20179;-77
2022/01/27 08:12:19;;;;;;;25.07;18.73;;;;;;;5.85;92.48;101051.47;5081228;28;20177;-78
2022/01/27 08:14:44;;;;;;;26.23;19.00;;;;;;;6.16;88.34;101054.22;5098880;28;20191;-74
2022/01/27 08:17:10;;;;;;;25.80;18.90;;;;;;;5.86;88.49;101057.53;5094436;28;20434;-74
2022/01/27 08:19:35;;;;;;;21.80;16.57;;;;;;;5.88;87.81;101061.03;5078639;28;20177;-75
2022/01/27 08:22:01;;;;;;;22.20;15.73;;;;;;;5.78;88.69;101046.00;5078390;28;20196;-75
2022/01/27 08:24:26;;;;;;;22.70;17.40;;;;;;;5.83;88.17;101045.38;5078641;28;20196;-74
2022/01/27 08:26:58;;;;;;;21.60;17.03;;;;;;;6.00;87.58;101048.53;5093175;28;20241;-74
2022/01/27 08:29:30;;;;;;;22.03;16.50;;;;;;;6.06;87.64;101055.63;5098790;28;20542;-75
2022/01/27 08:32:06;;;;;;;20.10;15.00;;;;;;;6.15;87.29;101048.16;5098688;28;20782;-75
2022/01/27 08:34:39;;;;;;;21.90;15.67;;;;;;;6.40;86.22;101036.88;5098606;28;20388;-72
2022/01/27 08:37:14;;;;;;;20.70;15.63;;;;;;;6.00;87.03;101030.41;5098717;28;20680;-73
2022/01/27 08:39:39;;;;;;;21.97;16.80;;;;;;;5.97;87.76;101038.06;5098656;28;20722;-73
2022/01/27 08:42:06;;;;;;;21.30;16.33;;;;;;;6.04;87.53;101037.44;5098774;28;20480;-75
2022/01/27 08:44:31;;;;;;;21.40;16.57;;;;;;;6.05;87.73;101041.81;5061185;28;20220;-75
2022/01/27 08:46:56;;;;;;;19.27;16.00;;;;;;;5.92;88.43;101052.53;5078702;28;20850;-77
2022/01/27 08:49:24;;;;;;;21.60;15.80;;;;;;;6.04;88.02;101040.03;5078302;28;20191;-81
2022/01/27 08:51:50;;;;;;;22.20;15.07;;;;;;;6.34;86.70;101028.91;5044395;28;20173;-76
2022/01/27 08:54:15;;;;;;;17.37;12.10;;;;;;;5.56;88.44;101037.50;5077772;28;20656;-75
2022/01/27 08:56:41;;;;;;;21.33;16.07;;;;;;;5.85;88.94;101030.75;5078527;28;20550;-74
2022/01/27 08:59:16;;;;;;;17.27;13.50;;;;;;;5.53;89.48;101038.31;5104588;28;20192;-90
2022/01/27 09:01:42;;;;;;;23.83;16.20;;;;;;;5.78;90.01;101036.56;5081088;28;20441;-88
2022/01/27 09:04:07;;;;;;;19.00;13.60;;;;;;;5.59;89.79;101024.72;5081090;28;20505;-83
2022/01/27 09:06:33;;;;;;;21.37;14.67;;;;;;;5.87;89.28;101017.88;5102288;28;20153;-81
2022/01/27 09:08:59;;;;;;;19.17;14.17;;;;;;;6.03;88.52;101038.28;5099037;28;20179;-77
2022/01/27 09:11:24;;;;;;;18.97;14.73;;;;;;;5.68;89.67;101027.63;5097709;28;20175;-76
2022/01/27 09:13:52;;;;;;;18.93;14.77;;;;;;;6.09;88.23;101021.19;5098259;28;20591;-78
2022/01/27 09:16:18;;;;;;;18.17;14.30;;;;;;;5.83;89.42;101028.94;5098250;28;20213;-81
2022/01/27 09:18:44;;;;;;;17.50;14.37;;;;;;;5.85;90.05;101024.72;5080708;28;20415;-85
2022/01/27 09:21:16;;;;;;;20.47;15.03;;;;;;;5.75;90.47;101018.38;5080965;28;20425;-77
2022/01/27 09:23:41;;;;;;;17.10;13.60;;;;;;;5.98;90.36;101029.50;5081114;28;20595;-78
2022/01/27 09:26:20;;;;;;;19.80;14.73;;;;;;;5.94;89.88;101024.13;5098007;28;20414;-77
2022/01/27 09:28:47;;;;;;;17.23;14.20;;;;;;;6.00;90.41;101017.47;5097848;28;20430;-78
2022/01/27 09:31:12;;;;;;;19.90;14.30;;;;;;;6.16;90.33;101015.41;5097974;28;20416;-77
2022/01/27 09:33:37;;;;;;;18.83;14.47;;;;;;;6.10;90.59;101015.19;5098355;28;20381;-76
2022/01/27 09:36:11;;;;;;;20.00;14.17;;;;;;;6.25;90.26;101002.72;5098075;28;20254;-76
2022/01/27 09:38:36;;;;;;;18.30;13.87;;;;;;;6.26;89.91;101017.44;5097765;28;20164;-77
2022/01/27 09:41:01;;;;;;;16.23;12.07;;;;;;;6.06;90.39;101002.16;5098224;28;20385;-80
2022/01/27 09:43:27;;;;;;;17.20;12.80;;;;;;;6.11;89.82;101011.78;5097832;28;20550;-78
2022/01/27 09:45:54;;;;;;;15.30;11.63;;;;;;;6.12;90.54;101004.06;5097527;28;20699;-78
2022/01/27 09:48:20;;;;;;;16.87;13.77;;;;;;;6.41;89.24;100996.31;5081080;28;20156;-78
2022/01/27 09:50:59;;;;;;;15.60;11.83;;;;;;;6.12;90.39;101000.59;5080456;28;20388;-79
2022/01/27 09:53:25;;;;;;;14.00;11.07;;;;;;;6.24;90.07;101012.22;5097654;28;20255;-79
2022/01/27 09:55:50;;;;;;;16.30;11.77;;;;;;;6.24;90.34;101004.44;5098023;28;20385;-77
2022/01/27 09:58:15;;;;;;;14.27;10.33;;;;;;;6.61;88.66;101011.59;5099578;28;20601;-77
2022/01/27 10:00:41;;;;;;;13.87;11.70;;;;;;;6.45;89.09;101008.53;5099619;28;20185;-76
2022/01/27 10:03:13;;;;;;;15.73;10.77;;;;;;;6.25;90.08;101010.50;5097487;28;20538;-77
2022/01/27 10:05:41;;;;;;;13.03;10.40;;;;;;;6.45;89.24;101005.06;5112264;28;20203;-76
2022/01/27 10:08:11;;;;;;;12.27;10.37;;;;;;;6.69;88.72;101005.81;5125114;28;20383;-77
2022/01/27 10:10:41;;;;;;;12.47;11.07;;;;;;;6.60;89.08;101013.28;5124424;28;20416;-74
2022/01/27 10:13:10;;;;;;;13.70;10.90;;;;;;;6.64;89.29;101007.38;5122792;28;20402;-74
2022/01/27 10:15:37;;;;;;;15.03;11.67;;;;;;;6.93;88.13;100996.09;5122565;28;20372;-78
2022/01/27 10:18:14;;;;;;;13.00;11.37;;;;;;;6.86;88.97;100995.94;5121704;28;20645;-71
2022/01/27 10:20:42;;;;;;;13.27;9.90;;;;;;;6.47;89.41;100999.09;5104766;28;20878;-73
2022/01/27 10:23:18;;;;;;;13.20;10.70;;;;;;;6.86;88.59;100989.88;5122028;28;20755;-73
2022/01/27 10:25:47;;;;;;;12.80;10.87;;;;;;;6.70;89.36;100994.63;5123177;28;20423;-73
2022/01/27 10:28:29;;;;;;;17.90;12.30;;;;;;;7.13;88.35;101005.34;5122217;28;20797;-73
2022/01/27 10:31:23;;;;;;;14.27;11.60;;;;;;;7.10;87.70;101004.38;5121760;28;20813;-72
2022/01/27 10:34:03;;;;;;;17.93;11.57;;;;;;;7.31;87.87;100999.78;5121564;28;20384;-72
2022/01/27 10:36:29;;;;;;;14.60;11.30;;;;;;;7.09;89.17;101011.28;5121336;28;20777;-76
2022/01/27 10:39:03;;;;;;;15.77;11.43;;;;;;;7.47;86.98;101005.38;5121455;28;20398;-76
2022/01/27 10:41:32;;;;;;;14.40;11.60;;;;;;;7.02;89.75;100996.38;5121415;28;20849;-76
2022/01/27 10:44:11;;;;;;;11.77;10.60;;;;;;;7.26;88.64;101001.38;5121215;28;20529;-75
2022/01/27 10:46:49;;;;;;;13.10;11.60;;;;;;;7.87;86.91;101001.22;5121407;28;20388;-76
2022/01/27 10:49:24;;;;;;;17.43;12.77;;;;;;;7.62;87.10;100998.00;5104732;28;20428;-75
2022/01/27 10:51:53;;;;;;;15.83;12.17;;;;;;;7.63;87.88;101002.34;5120803;28;20769;-75
2022/01/27 10:57:02;;;;;;;20.07;12.43;;;;;;;7.97;86.31;100997.13;5121101;28;20496;-74
2022/01/27 10:59:28;;;;;;;18.53;13.20;;;;;;;7.99;86.73;100996.31;5120894;28;20402;-72
2022/01/27 11:01:55;;;;;;;19.03;12.00;;;;;;;7.84;86.73;100995.94;5120787;28;20436;-75
2022/01/27 11:04:21;;;;;;;16.80;12.70;;;;;;;7.80;87.13;100997.59;5121052;28;20420;-73
2022/01/27 11:06:55;;;;;;;15.60;12.07;;;;;;;7.70;87.78;100998.22;5086381;28;20412;-77
2022/01/27 11:09:21;;;;;;;21.60;11.13;;;;;;;7.78;87.69;100996.69;5120523;28;20429;-72
2022/01/27 11:11:49;;;;;;;17.60;11.43;;;;;;;8.19;85.37;100983.81;5120777;28;20420;-74
2022/01/27 11:14:14;;;;;;;16.40;10.50;;;;;;;8.34;85.79;100980.69;5120623;28;20164;-75
2022/01/27 11:16:43;;;;;;;18.20;11.47;;;;;;;8.27;85.87;100982.25;5120413;28;20398;-78
2022/01/27 11:19:17;;;;;;;25.10;11.40;;;;;;;8.25;85.57;100976.19;5120417;28;20490;-78
2022/01/27 11:21:47;;;;;;;18.00;11.90;;;;;;;8.29;86.08;100965.84;5120531;28;20695;-77
2022/01/27 11:24:26;;;;;;;19.27;11.20;;;;;;;9.04;83.23;100982.19;5086161;28;20475;-79
2022/01/27 11:26:53;;;;;;;16.13;10.77;;;;;;;8.49;85.17;100976.72;5103996;28;20466;-77
2022/01/27 11:29:19;;;;;;;29.37;12.17;;;;;;;8.28;86.26;100970.19;5103442;28;20426;-79
2022/01/27 11:31:52;;;;;;;25.10;11.50;;;;;;;8.64;86.10;100982.22;5103222;28;20392;-75
2022/01/27 11:34:18;;;;;;;23.97;11.80;;;;;;;8.36;85.81;100975.53;5102787;28;20693;-75
2022/01/27 11:36:59;;;;;;;17.63;10.37;;;;;;;9.00;83.71;100980.34;5102648;28;20492;-74
2022/01/27 11:39:50;;;;;;;17.17;9.87;;;;;;;8.99;83.16;100974.28;5120088;28;20167;-73
2022/01/27 11:42:42;;;;;;;20.00;10.33;;;;;;;9.21;83.03;100974.72;5120256;28;20416;-72
2022/01/27 11:45:26;;;;;;;21.07;9.10;;;;;;;9.23;82.48;100973.03;5108381;28;20468;-83
2022/01/27 11:48:08;;;;;;;30.00;8.70;;;;;;;9.29;81.88;100970.53;5102652;28;20454;-79
2022/01/27 11:50:59;;;;;;;18.90;7.37;;;;;;;9.43;80.99;100974.25;5119022;28;20463;-71